Time;durP1;ratioP1;P1;durP2;ratioP2;P2;SDS_P1;SDS_P2;PMS_P1;PMS_P2;Temp;Humidity;BMP_temperature;BMP_pressure;BME280_temperature;BME280_humidity;BME280_pressure;Samples;Min_cycle;Max_cycle;Signal;HPM_P1;HPM_P2
2023/06/14 00:00:22;;;;;;;10.60;7.68;;;19.60;72.90;;;;;;5076879;28;20029;-77
2023/06/14 00:02:48;;;;;;;9.43;6.68;;;19.60;73.00;;;;;;5076763;28;20139;-77
2023/06/14 00:05:14;;;;;;;11.23;7.53;;;19.60;72.90;;;;;;5076347;28;20516;-77
2023/06/14 00:07:48;;;;;;;12.32;7.45;;;19.50;72.90;;;;;;5076403;28;20492;-77
2023/06/14 00:10:14;;;;;;;13.85;7.10;;;19.50;73.10;;;;;;5076731;28;20051;-77
2023/06/14 00:12:41;;;;;;;11.93;6.93;;;19.40;73.30;;;;;;5076307;28;20016;-77
2023/06/14 00:15:09;;;;;;;10.80;7.32;;;19.40;73.30;;;;;;5076438;28;20082;-77
2023/06/14 00:17:36;;;;;;;9.45;6.00;;;19.40;73.20;;;;;;5076179;28;20032;-77
2023/06/14 00:20:05;;;;;;;9.50;6.60;;;19.30;73.10;;;;;;5076109;28;20103;-77
2023/06/14 00:22:32;;;;;;;11.63;6.85;;;19.30;73.10;;;;;;5076372;28;20028;-76
2023/06/14 00:24:58;;;;;;;9.57;5.78;;;19.30;73.10;;;;;;5076189;28;20032;-77
2023/06/14 00:27:25;;;;;;;9.60;6.88;;;19.20;72.80;;;;;;5076557;28;20025;-77
2023/06/14 00:29:51;;;;;;;7.43;5.30;;;19.20;72.80;;;;;;5076223;28;20024;-77
2023/06/14 00:32:18;;;;;;;7.65;5.15;;;19.20;72.70;;;;;;5075960;28;20051;-77
2023/06/14 00:34:44;;;;;;;8.43;5.15;;;19.20;72.60;;;;;;5075778;28;20051;-77
2023/06/14 00:37:10;;;;;;;7.70;5.40;;;19.20;72.60;;;;;;5076311;28;20028;-77
2023/06/14 00:39:36;;;;;;;11.15;5.43;;;19.20;72.60;;;;;;5075116;28;20021;-76
2023/06/14 00:42:02;;;;;;;7.47;5.57;;;19.20;72.50;;;;;;5075754;28;20051;-76
2023/06/14 00:44:28;;;;;;;7.30;4.70;;;19.20;72.50;;;;;;5076099;28;20020;-76
2023/06/14 00:46:54;;;;;;;8.00;5.13;;;19.10;72.50;;;;;;5075665;28;20035;-76
2023/06/14 00:49:21;;;;;;;6.70;4.65;;;19.10;72.50;;;;;;5076164;28;20028;-76
2023/06/14 00:51:47;;;;;;;7.05;4.93;;;19.10;72.50;;;;;;5075555;28;20154;-76
2023/06/14 00:54:13;;;;;;;7.32;5.18;;;19.10;72.50;;;;;;5075607;28;20437;-76
2023/06/14 00:56:40;;;;;;;8.57;6.28;;;19.00;72.60;;;;;;5075433;28;20052;-76
2023/06/14 00:59:06;;;;;;;9.35;6.22;;;19.00;72.80;;;;;;5075757;28;20097;-76
2023/06/14 01:01:33;;;;;;;9.13;5.45;;;19.00;72.80;;;;;;5075680;28;20021;-76
2023/06/14 01:04:01;;;;;;;8.68;6.10;;;18.90;72.80;;;;;;5075599;28;20047;-76
2023/06/14 01:06:51;;;;;;;7.88;5.65;;;18.90;72.90;;;;;;5075260;28;20020;-76
2023/06/14 01:09:46;;;;;;;7.50;5.25;;;18.90;72.90;;;;;;5057749;28;20035;-77
2023/06/14 01:12:31;;;;;;;6.45;4.57;;;18.90;73.00;;;;;;5078206;28;20103;-77
2023/06/14 01:14:59;;;;;;;8.68;5.43;;;18.90;72.80;;;;;;5083103;28;20090;-77
2023/06/14 01:17:26;;;;;;;9.18;5.00;;;18.80;72.90;;;;;;5076081;28;20024;-77
2023/06/14 01:19:57;;;;;;;6.88;4.85;;;18.80;72.90;;;;;;5075483;28;20035;-77
2023/06/14 01:22:26;;;;;;;7.80;5.32;;;18.80;72.90;;;;;;5075500;28;20130;-77
2023/06/14 01:24:55;;;;;;;8.32;5.18;;;18.80;72.90;;;;;;5074952;28;20028;-77
2023/06/14 01:27:32;;;;;;;6.97;4.57;;;18.80;73.00;;;;;;5075090;28;20052;-77
2023/06/14 01:30:00;;;;;;;8.25;4.90;;;18.80;72.80;;;;;;5075066;28;20036;-77
2023/06/14 01:32:28;;;;;;;7.00;4.43;;;18.80;72.80;;;;;;5075325;28;20095;-77
2023/06/14 01:34:54;;;;;;;6.15;4.40;;;18.80;72.90;;;;;;5074763;28;20103;-77
2023/06/14 01:37:21;;;;;;;6.45;4.47;;;18.90;72.90;;;;;;5075029;28;20078;-77
2023/06/14 01:39:49;;;;;;;6.60;4.65;;;18.80;72.90;;;;;;5057357;28;20119;-77
2023/06/14 01:42:16;;;;;;;6.57;4.78;;;18.90;72.80;;;;;;5074909;28;20103;-77
2023/06/14 01:44:44;;;;;;;7.47;5.03;;;18.80;72.80;;;;;;5074795;28;20441;-77
2023/06/14 01:47:10;;;;;;;6.65;4.38;;;18.80;72.80;;;;;;5074850;28;20058;-76
2023/06/14 01:49:38;;;;;;;6.05;4.57;;;18.90;72.90;;;;;;5075486;28;20035;-76
2023/06/14 01:52:04;;;;;;;6.95;4.72;;;18.80;72.80;;;;;;5060629;28;20021;-76
2023/06/14 01:54:30;;;;;;;9.75;4.90;;;18.90;72.80;;;;;;5079464;28;20064;-76
2023/06/14 01:56:57;;;;;;;7.03;4.72;;;18.90;72.80;;;;;;5078830;28;20392;-76
2023/06/14 01:59:23;;;;;;;7.28;4.55;;;18.90;72.90;;;;;;5078942;28;20032;-76
2023/06/14 02:01:49;;;;;;;7.32;4.90;;;18.90;73.10;;;;;;5078856;28;20111;-78
2023/06/14 02:04:15;;;;;;;6.72;4.68;;;18.90;73.00;;;;;;5078723;28;20060;-76
2023/06/14 02:06:41;;;;;;;8.25;4.90;;;18.80;73.00;;;;;;5079259;28;20460;-76
2023/06/14 02:09:06;;;;;;;6.50;4.72;;;18.80;73.00;;;;;;5078689;28;20035;-76
2023/06/14 02:11:32;;;;;;;9.18;4.88;;;18.80;73.00;;;;;;5078911;28;20020;-76
2023/06/14 02:13:59;;;;;;;7.50;4.75;;;18.80;73.00;;;;;;5079116;28;20074;-75
2023/06/14 02:16:28;;;;;;;6.28;4.60;;;18.80;73.10;;;;;;5078433;28;20024;-76
2023/06/14 02:18:54;;;;;;;6.65;4.75;;;18.80;73.00;;;;;;5078829;28;20020;-76
2023/06/14 02:21:20;;;;;;;8.70;5.30;;;18.80;72.90;;;;;;5078398;28;20017;-76
2023/06/14 02:23:46;;;;;;;7.90;5.30;;;18.80;72.90;;;;;;5078675;28;20323;-76
2023/06/14 02:26:12;;;;;;;9.98;5.30;;;18.80;73.00;;;;;;5078437;28;20021;-76
2023/06/14 02:28:38;;;;;;;7.07;4.60;;;18.80;72.90;;;;;;5078207;28;20059;-76
2023/06/14 02:31:04;;;;;;;7.22;4.68;;;18.80;72.80;;;;;;5078207;28;20070;-76
2023/06/14 02:33:29;;;;;;;6.18;4.43;;;18.80;72.80;;;;;;5060366;28;20032;-76
2023/06/14 02:35:56;;;;;;;5.38;4.30;;;18.80;72.80;;;;;;5078219;28;20319;-76
2023/06/14 02:38:22;;;;;;;7.05;4.80;;;18.80;72.90;;;;;;5078356;28;20048;-76
2023/06/14 02:40:48;;;;;;;5.90;4.30;;;18.80;72.90;;;;;;5078021;28;20442;-76
2023/06/14 02:43:15;;;;;;;8.70;4.30;;;18.70;73.00;;;;;;5078543;28;20068;-76
2023/06/14 02:45:41;;;;;;;7.43;4.50;;;18.70;73.00;;;;;;5077800;28;20036;-76
2023/06/14 02:48:07;;;;;;;6.28;4.45;;;18.70;73.10;;;;;;5078467;28;20020;-76
2023/06/14 02:50:32;;;;;;;8.88;6.07;;;18.70;73.20;;;;;;5078395;28;20078;-76
2023/06/14 02:52:58;;;;;;;5.93;4.05;;;18.70;73.40;;;;;;5078391;28;20028;-76
2023/06/14 02:55:26;;;;;;;6.00;4.22;;;18.60;73.30;;;;;;5078250;28;20028;-76
2023/06/14 02:57:53;;;;;;;7.00;4.70;;;18.60;73.40;;;;;;5077745;28;20055;-76
2023/06/14 03:00:19;;;;;;;6.00;4.35;;;18.60;73.50;;;;;;5077726;28;20454;-76
2023/06/14 03:02:45;;;;;;;7.13;4.85;;;18.60;73.50;;;;;;5076966;28;20028;-76
2023/06/14 03:05:12;;;;;;;7.60;4.82;;;18.60;73.50;;;;;;5077735;28;20040;-76
2023/06/14 03:07:40;;;;;;;6.88;4.80;;;18.50;73.60;;;;;;5077554;28;20411;-76
2023/06/14 03:10:09;;;;;;;6.93;4.47;;;18.50;73.70;;;;;;5077566;28;20028;-76
2023/06/14 03:12:36;;;;;;;5.88;4.25;;;18.50;73.70;;;;;;5077753;28;20025;-76
2023/06/14 03:15:02;;;;;;;6.53;4.50;;;18.50;73.70;;;;;;5077333;28;20384;-76
2023/06/14 03:17:32;;;;;;;8.43;5.18;;;18.50;73.80;;;;;;5077381;28;20033;-76
2023/06/14 03:19:58;;;;;;;5.47;4.35;;;18.40;73.90;;;;;;5077460;28;20067;-76
2023/06/14 03:22:25;;;;;;;6.45;4.43;;;18.40;73.90;;;;;;5077398;28;20032;-76
2023/06/14 03:24:52;;;;;;;6.38;4.45;;;18.40;74.00;;;;;;5077085;28;20024;-76
2023/06/14 03:27:18;;;;;;;8.52;4.63;;;18.40;74.00;;;;;;5077785;28;20078;-76
2023/06/14 03:29:44;;;;;;;6.93;4.80;;;18.40;74.10;;;;;;5077205;28;20017;-76
2023/06/14 03:32:10;;;;;;;7.00;4.70;;;18.40;74.20;;;;;;5077270;28;20448;-76
2023/06/14 03:34:38;;;;;;;7.35;4.43;;;18.40;74.20;;;;;;5076957;28;20127;-76
2023/06/14 03:37:05;;;;;;;5.30;4.00;;;18.40;74.20;;;;;;5077023;28;20033;-77
2023/06/14 03:39:31;;;;;;;6.75;4.68;;;18.50;74.10;;;;;;5077052;28;20453;-77
2023/06/14 03:41:57;;;;;;;6.45;4.45;;;18.50;74.10;;;;;;5076955;28;20035;-77
2023/06/14 03:44:23;;;;;;;9.43;5.43;;;18.40;74.10;;;;;;5076934;28;20024;-77
2023/06/14 03:46:48;;;;;;;8.15;4.28;;;18.50;73.80;;;;;;5077005;28;20020;-77
2023/06/14 03:49:16;;;;;;;7.05;4.68;;;18.50;73.90;;;;;;5076864;28;20449;-77
2023/06/14 03:51:42;;;;;;;10.25;4.55;;;18.60;73.70;;;;;;5076746;28;20029;-77
2023/06/14 03:54:08;;;;;;;7.72;4.88;;;18.60;73.50;;;;;;5076943;28;20032;-77
2023/06/14 03:56:35;;;;;;;8.93;5.47;;;18.70;73.50;;;;;;5076675;28;20430;-76
2023/06/14 03:59:02;;;;;;;12.93;7.18;;;18.70;73.50;;;;;;5076567;28;20454;-76
2023/06/14 04:01:29;;;;;;;11.57;6.22;;;18.80;73.30;;;;;;5059354;28;20517;-76
2023/06/14 04:03:57;;;;;;;11.65;6.82;;;18.90;73.30;;;;;;5076502;28;20029;-76
2023/06/14 04:06:24;;;;;;;14.40;7.35;;;18.90;73.10;;;;;;5076433;28;20039;-76
2023/06/14 04:08:52;;;;;;;12.40;6.50;;;18.90;73.20;;;;;;5058808;28;20054;-76
2023/06/14 04:11:18;;;;;;;12.73;7.47;;;19.00;73.10;;;;;;5058736;28;20029;-76
2023/06/14 04:13:44;;;;;;;12.80;6.82;;;19.10;73.00;;;;;;5075665;28;20093;-76
2023/06/14 04:16:10;;;;;;;9.98;6.03;;;19.10;72.90;;;;;;5058496;28;20086;-77
2023/06/14 04:18:36;;;;;;;10.60;6.20;;;19.20;72.80;;;;;;5076227;28;20032;-77
2023/06/14 04:21:02;;;;;;;14.15;6.53;;;19.30;72.60;;;;;;5076331;28;20039;-76
2023/06/14 04:23:28;;;;;;;9.52;5.93;;;19.40;72.60;;;;;;5076507;28;20024;-77
2023/06/14 04:25:54;;;;;;;11.35;6.80;;;19.40;72.40;;;;;;5075954;28;20146;-77
2023/06/14 04:28:25;;;;;;;11.63;6.47;;;19.50;72.50;;;;;;5076554;28;20026;-76
2023/06/14 04:30:51;;;;;;;11.32;5.97;;;19.50;72.40;;;;;;5075944;28;20025;-76
2023/06/14 04:33:17;;;;;;;8.95;5.00;;;19.60;72.30;;;;;;5075916;28;20108;-76
2023/06/14 04:35:47;;;;;;;8.77;5.20;;;19.70;72.10;;;;;;5075598;28;20409;-76
2023/06/14 04:38:13;;;;;;;8.35;4.47;;;19.70;72.00;;;;;;5075838;28;20025;-76
2023/06/14 04:40:42;;;;;;;7.95;5.45;;;19.80;71.90;;;;;;5058067;28;20044;-76
2023/06/14 04:43:12;;;;;;;6.15;4.47;;;19.90;71.70;;;;;;5075653;28;20032;-76
2023/06/14 04:45:39;;;;;;;7.40;4.55;;;20.00;71.60;;;;;;5075780;28;20104;-76
2023/06/14 04:48:06;;;;;;;8.00;4.97;;;20.10;71.60;;;;;;5076064;28;20354;-76
2023/06/14 04:50:32;;;;;;;6.97;4.65;;;20.30;71.50;;;;;;5075898;28;20032;-75
2023/06/14 04:52:59;;;;;;;8.68;5.45;;;20.60;71.40;;;;;;5075850;28;20020;-76
2023/06/14 04:55:26;;;;;;;6.85;4.55;;;20.80;70.90;;;;;;5076071;28;20120;-75
2023/06/14 04:57:53;;;;;;;8.38;4.93;;;21.10;70.80;;;;;;5075544;28;20021;-76
2023/06/14 05:00:20;;;;;;;8.32;4.70;;;21.40;70.00;;;;;;5075453;28;20074;-75
2023/06/14 05:02:49;;;;;;;5.85;3.92;;;21.40;69.20;;;;;;5075357;28;20384;-75
2023/06/14 05:05:15;;;;;;;6.15;4.25;;;21.50;68.70;;;;;;5075500;28;20033;-75
2023/06/14 05:07:41;;;;;;;5.60;3.53;;;21.50;68.70;;;;;;5076108;28;20373;-76
2023/06/14 05:10:08;;;;;;;5.15;3.78;;;21.60;68.50;;;;;;5075840;28;20035;-76
2023/06/14 05:12:34;;;;;;;7.35;4.07;;;21.80;68.00;;;;;;5075524;28;20016;-75
2023/06/14 05:15:00;;;;;;;6.05;3.72;;;21.90;68.00;;;;;;5075233;28;20075;-76
2023/06/14 05:17:27;;;;;;;6.75;4.30;;;21.90;67.70;;;;;;5075728;28;20052;-75
2023/06/14 05:19:55;;;;;;;5.80;3.75;;;22.00;67.60;;;;;;5075168;28;20082;-75
2023/06/14 05:22:22;;;;;;;4.50;3.42;;;22.10;67.40;;;;;;5075476;28;20103;-74
2023/06/14 05:24:48;;;;;;;7.25;3.55;;;22.30;67.00;;;;;;5075192;28;20059;-70
2023/06/14 05:27:14;;;;;;;7.43;4.70;;;22.40;66.80;;;;;;5057201;28;20437;-70
2023/06/14 05:29:40;;;;;;;5.68;3.85;;;22.60;66.50;;;;;;5075114;28;20028;-70
2023/06/14 05:32:06;;;;;;;6.57;3.90;;;22.80;66.10;;;;;;5075615;28;20329;-72
2023/06/14 05:34:32;;;;;;;6.05;3.78;;;23.20;65.80;;;;;;5074746;28;20048;-72
2023/06/14 05:37:00;;;;;;;5.88;3.45;;;23.70;64.70;;;;;;5074824;28;20389;-71
2023/06/14 05:39:26;;;;;;;4.50;3.40;;;24.70;63.80;;;;;;5075291;28;20037;-71
2023/06/14 05:41:52;;;;;;;4.82;3.38;;;26.20;61.70;;;;;;5075224;28;20078;-71
2023/06/14 05:44:18;;;;;;;5.68;3.30;;;27.90;58.00;;;;;;5075422;28;20036;-64
2023/06/14 05:46:44;;;;;;;5.32;3.40;;;29.50;55.00;;;;;;5075215;28;20013;-68
2023/06/14 05:49:11;;;;;;;3.20;2.90;;;30.70;52.00;;;;;;5075001;28;20031;-68
2023/06/14 05:51:37;;;;;;;3.63;3.13;;;31.30;50.00;;;;;;5074835;28;20024;-72
2023/06/14 05:54:03;;;;;;;4.15;3.28;;;32.00;48.60;;;;;;5075138;28;20063;-72
2023/06/14 05:56:29;;;;;;;4.30;3.28;;;33.10;47.50;;;;;;5074840;28;20048;-72
2023/06/14 05:58:55;;;;;;;3.72;3.08;;;34.10;44.00;;;;;;5075136;28;20091;-72
2023/06/14 06:01:21;;;;;;;5.82;3.42;;;35.10;42.90;;;;;;5074762;28;20438;-72
2023/06/14 06:03:47;;;;;;;4.95;3.40;;;35.80;41.00;;;;;;5075081;28;20073;-72
2023/06/14 06:06:14;;;;;;;4.32;2.90;;;35.90;40.00;;;;;;5074879;28;20029;-72
2023/06/14 06:08:40;;;;;;;6.15;4.68;;;35.90;39.70;;;;;;5057083;28;20031;-73
2023/06/14 06:11:06;;;;;;;8.75;4.53;;;36.40;39.70;;;;;;5074749;28;20052;-73
2023/06/14 06:13:32;;;;;;;4.55;3.40;;;36.40;37.60;;;;;;5074702;28;20365;-73
2023/06/14 06:15:58;;;;;;;4.97;3.30;;;36.30;38.40;;;;;;5074723;28;20021;-72
2023/06/14 06:18:24;;;;;;;4.43;3.05;;;36.60;38.00;;;;;;5074948;28;20093;-73
2023/06/14 06:20:50;;;;;;;4.13;3.30;;;36.90;37.60;;;;;;5056917;28;20119;-73
2023/06/14 06:23:16;;;;;;;4.95;3.55;;;36.40;35.80;;;;;;5074880;28;20028;-73
2023/06/14 06:25:43;;;;;;;4.20;3.20;;;35.90;36.40;;;;;;5074391;28;20442;-73
2023/06/14 06:28:09;;;;;;;5.45;3.30;;;35.50;36.60;;;;;;5075089;28;20028;-73
2023/06/14 06:30:36;;;;;;;3.20;2.90;;;34.90;37.00;;;;;;5075083;28;20100;-73
2023/06/14 06:33:03;;;;;;;3.92;3.20;;;34.40;37.80;;;;;;5074469;28;20074;-72
2023/06/14 06:35:30;;;;;;;4.15;3.30;;;34.40;37.80;;;;;;5074346;28;20056;-73
2023/06/14 06:37:57;;;;;;;3.78;3.28;;;34.60;36.70;;;;;;5075777;28;20520;-73
2023/06/14 06:40:23;;;;;;;3.15;2.85;;;34.50;37.00;;;;;;5078476;28;20024;-73
2023/06/14 06:42:49;;;;;;;3.90;3.53;;;34.40;37.20;;;;;;5078674;28;20078;-72
2023/06/14 06:45:15;;;;;;;4.35;3.50;;;34.20;36.90;;;;;;5060597;28;20025;-73
2023/06/14 06:47:41;;;;;;;5.43;3.60;;;33.70;38.00;;;;;;5078351;28;20073;-73
2023/06/14 06:50:08;;;;;;;4.65;3.60;;;33.10;37.80;;;;;;5078274;28;20017;-73
2023/06/14 06:52:35;;;;;;;5.65;3.10;;;32.50;38.30;;;;;;5078241;28;20155;-73
2023/06/14 06:55:02;;;;;;;4.82;3.22;;;32.00;39.90;;;;;;5077790;28;20378;-73
2023/06/14 06:57:29;;;;;;;6.10;3.83;;;31.70;40.70;;;;;;5078319;28;20113;-73
2023/06/14 06:59:55;;;;;;;5.03;3.40;;;31.10;38.80;;;;;;5078104;28;20032;-73
2023/06/14 07:02:21;;;;;;;6.03;3.80;;;30.70;41.30;;;;;;5078288;28;20058;-73
2023/06/14 07:04:47;;;;;;;4.07;3.40;;;30.50;41.40;;;;;;5060200;28;20056;-74
2023/06/14 07:07:13;;;;;;;5.50;3.38;;;30.20;41.80;;;;;;5077956;28;20044;-73
2023/06/14 07:09:40;;;;;;;4.60;3.70;;;29.60;41.60;;;;;;5077942;28;20054;-73
2023/06/14 07:12:06;;;;;;;4.85;3.72;;;29.20;41.50;;;;;;5059937;28;20043;-73
2023/06/14 07:14:33;;;;;;;5.00;4.13;;;28.90;43.10;;;;;;5077525;28;20044;-74
2023/06/14 07:16:58;;;;;;;5.60;4.18;;;28.60;43.20;;;;;;5077470;28;20445;-74
2023/06/14 07:19:24;;;;;;;5.63;3.92;;;28.50;43.50;;;;;;5077490;28;20039;-74
2023/06/14 07:21:50;;;;;;;5.03;3.85;;;28.30;43.70;;;;;;5077472;28;20021;-74
2023/06/14 07:24:16;;;;;;;5.53;3.92;;;28.10;44.50;;;;;;5077544;28;20433;-74
2023/06/14 07:26:43;;;;;;;8.18;3.90;;;28.00;44.60;;;;;;5077204;28;20021;-73
2023/06/14 07:29:09;;;;;;;8.02;4.30;;;27.90;44.60;;;;;;5077533;28;20043;-74
2023/06/14 07:31:34;;;;;;;6.68;4.20;;;27.70;44.40;;;;;;5077256;28;20021;-73
2023/06/14 07:34:00;;;;;;;5.93;3.90;;;27.40;45.40;;;;;;5077414;28;20058;-73
2023/06/14 07:36:26;;;;;;;5.70;3.92;;;27.30;46.30;;;;;;5077060;28;20044;-75
2023/06/14 07:38:52;;;;;;;6.90;4.78;;;27.20;46.40;;;;;;5077600;28;20024;-74
2023/06/14 07:41:18;;;;;;;8.57;4.35;;;27.00;46.60;;;;;;5077351;28;20051;-74
2023/06/14 07:43:44;;;;;;;6.30;4.47;;;26.90;47.10;;;;;;5077022;28;20057;-74
2023/06/14 07:46:10;;;;;;;6.60;4.85;;;26.80;47.60;;;;;;5076920;28;20350;-74
2023/06/14 07:48:36;;;;;;;5.85;4.22;;;26.80;47.80;;;;;;5076988;28;20020;-74
2023/06/14 07:51:03;;;;;;;8.65;4.53;;;26.80;48.30;;;;;;5076898;28;20149;-73
2023/06/14 07:53:30;;;;;;;8.55;4.60;;;26.60;48.40;;;;;;5059310;28;20051;-74
2023/06/14 07:55:57;;;;;;;8.23;4.32;;;26.40;48.70;;;;;;5076661;28;20416;-74
2023/06/14 07:58:22;;;;;;;6.07;4.25;;;26.40;48.60;;;;;;5077020;28;20036;-74
2023/06/14 08:00:49;;;;;;;7.43;4.78;;;26.40;48.50;;;;;;5076943;28;20447;-75
2023/06/14 08:03:15;;;;;;;6.40;4.32;;;26.20;47.50;;;;;;5076594;28;20361;-75
2023/06/14 08:05:41;;;;;;;6.03;4.32;;;26.20;48.70;;;;;;5076709;28;20027;-74
2023/06/14 08:08:07;;;;;;;7.93;4.55;;;26.30;48.60;;;;;;5076546;28;20066;-74
2023/06/14 08:10:33;;;;;;;6.10;4.13;;;26.40;49.30;;;;;;5076787;28;20369;-74
2023/06/14 08:12:59;;;;;;;5.00;4.20;;;26.40;47.70;;;;;;5076935;28;20035;-74
2023/06/14 08:15:25;;;;;;;7.07;4.85;;;26.40;49.00;;;;;;5076658;28;20028;-75
2023/06/14 08:17:51;;;;;;;6.90;4.57;;;26.70;49.90;;;;;;5076555;28;20345;-74
2023/06/14 08:20:17;;;;;;;6.30;4.30;;;26.80;48.90;;;;;;5076172;28;20035;-74
2023/06/14 08:22:46;;;;;;;6.95;4.63;;;26.90;48.60;;;;;;5076717;28;20107;-74
2023/06/14 08:25:12;;;;;;;6.50;4.80;;;27.00;49.20;;;;;;5075993;28;20446;-75
2023/06/14 08:27:38;;;;;;;6.68;3.92;;;27.10;48.20;;;;;;5076664;28;20029;-74
2023/06/14 08:30:04;;;;;;;5.82;4.45;;;27.20;48.40;;;;;;5058661;28;20013;-75
2023/06/14 08:32:30;;;;;;;7.28;5.43;;;27.10;48.80;;;;;;5076074;28;20021;-75
2023/06/14 08:34:56;;;;;;;8.55;4.93;;;26.90;49.80;;;;;;5076113;28;20105;-74
2023/06/14 08:37:22;;;;;;;8.45;4.30;;;26.80;48.90;;;;;;5075906;28;20036;-74
2023/06/14 08:39:48;;;;;;;6.70;4.35;;;26.90;49.10;;;;;;5075925;28;20035;-75
2023/06/14 08:42:15;;;;;;;5.88;3.85;;;26.90;48.80;;;;;;5075829;28;20039;-74
2023/06/14 08:44:41;;;;;;;6.30;4.63;;;26.90;49.20;;;;;;5076160;28;20063;-74
2023/06/14 08:47:09;;;;;;;7.03;4.40;;;26.90;48.90;;;;;;5076047;28;20048;-74
2023/06/14 08:49:39;;;;;;;7.07;4.22;;;26.60;47.00;;;;;;5075661;28;20028;-75
2023/06/14 08:52:08;;;;;;;10.77;4.60;;;26.40;48.50;;;;;;5075701;28;20020;-75
2023/06/14 08:54:36;;;;;;;6.45;5.10;;;26.40;48.60;;;;;;5058583;28;20020;-74
2023/06/14 08:57:06;;;;;;;6.70;4.72;;;26.30;49.30;;;;;;5075530;28;20036;-75
2023/06/14 08:59:38;;;;;;;6.28;4.65;;;26.20;49.60;;;;;;5075818;28;20052;-74
2023/06/14 09:02:06;;;;;;;9.15;5.13;;;26.20;49.80;;;;;;5075429;28;20446;-74
2023/06/14 09:04:33;;;;;;;7.18;4.43;;;26.10;50.00;;;;;;5075300;28;20032;-74
2023/06/14 09:06:59;;;;;;;7.53;4.65;;;26.00;50.90;;;;;;5075373;28;20059;-74
2023/06/14 09:09:28;;;;;;;6.60;4.75;;;25.90;50.20;;;;;;5076456;28;20039;-74
2023/06/14 09:11:55;;;;;;;7.15;4.88;;;25.80;50.10;;;;;;5075892;28;20059;-75
2023/06/14 09:14:23;;;;;;;9.40;4.88;;;25.70;51.20;;;;;;5075343;28;20024;-74
2023/06/14 09:16:55;;;;;;;8.27;5.10;;;25.60;51.00;;;;;;5075252;28;20103;-73
2023/06/14 09:19:23;;;;;;;10.00;4.60;;;25.50;51.80;;;;;;5075563;28;20486;-73
2023/06/14 09:21:49;;;;;;;7.43;4.30;;;25.50;52.30;;;;;;5075273;28;20081;-74
2023/06/14 09:24:15;;;;;;;6.05;4.57;;;25.40;51.60;;;;;;5057850;28;20017;-74
2023/06/14 09:26:41;;;;;;;7.18;4.80;;;25.50;51.90;;;;;;5075369;28;20442;-74
2023/06/14 09:29:09;;;;;;;6.30;4.53;;;25.60;51.20;;;;;;5075188;28;20135;-73
2023/06/14 09:31:35;;;;;;;9.70;4.57;;;25.70;51.80;;;;;;5075436;28;20025;-75
2023/06/14 09:34:02;;;;;;;6.65;4.63;;;25.60;51.50;;;;;;5074961;28;20038;-74
2023/06/14 09:36:31;;;;;;;6.60;4.50;;;25.70;52.30;;;;;;5075303;28;20032;-74
2023/06/14 09:39:08;;;;;;;8.10;4.97;;;25.60;52.70;;;;;;5075386;28;20032;-75
2023/06/14 09:41:38;;;;;;;7.53;4.97;;;25.60;52.10;;;;;;5075345;28;20029;-73
2023/06/14 09:44:06;;;;;;;8.43;4.63;;;25.60;52.00;;;;;;5074963;28;20466;-73
2023/06/14 09:46:34;;;;;;;6.88;4.72;;;25.60;52.00;;;;;;5057666;28;20071;-73
2023/06/14 09:49:01;;;;;;;7.38;4.75;;;25.60;51.20;;;;;;5057423;28;20024;-73
2023/06/14 09:51:30;;;;;;;6.55;4.60;;;25.50;51.80;;;;;;5074990;28;20453;-73
2023/06/14 09:54:00;;;;;;;9.00;4.55;;;25.50;51.70;;;;;;5075160;28;20020;-74
2023/06/14 09:56:31;;;;;;;6.93;4.78;;;25.50;51.20;;;;;;5075110;28;20111;-74
2023/06/14 09:58:58;;;;;;;8.38;4.60;;;25.50;51.50;;;;;;5074884;28;20033;-74
2023/06/14 10:01:29;;;;;;;6.13;4.90;;;25.40;52.10;;;;;;5057483;28;20044;-74
2023/06/14 10:04:08;;;;;;;8.38;4.63;;;25.40;52.20;;;;;;5075405;28;20438;-74
2023/06/14 10:06:42;;;;;;;6.63;4.90;;;25.40;51.60;;;;;;5075215;28;20152;-74
2023/06/14 10:09:10;;;;;;;7.25;4.80;;;25.50;51.50;;;;;;5075359;28;20342;-74
2023/06/14 10:11:43;;;;;;;7.53;4.70;;;25.60;50.90;;;;;;5075900;28;20365;-75
2023/06/14 10:14:11;;;;;;;7.28;4.75;;;25.50;50.70;;;;;;5079018;28;20029;-74
2023/06/14 10:17:00;;;;;;;7.75;4.90;;;25.50;51.00;;;;;;5078658;28;20086;-74
2023/06/14 10:19:52;;;;;;;7.43;4.70;;;25.60;52.50;;;;;;5079197;28;20030;-74
2023/06/14 10:22:24;;;;;;;10.65;4.97;;;25.60;52.20;;;;;;5078557;28;20424;-74
2023/06/14 10:24:51;;;;;;;8.40;5.20;;;25.60;52.20;;;;;;5078353;28;20399;-74
2023/06/14 10:27:18;;;;;;;8.43;5.35;;;25.70;51.60;;;;;;5078427;28;20025;-72
2023/06/14 10:29:53;;;;;;;6.88;4.90;;;25.60;50.20;;;;;;5060770;28;20021;-73
2023/06/14 10:32:20;;;;;;;6.90;5.15;;;25.60;51.60;;;;;;5078832;28;20021;-74
2023/06/14 10:34:54;;;;;;;7.10;5.00;;;25.60;51.40;;;;;;5078119;28;20049;-73
2023/06/14 10:37:20;;;;;;;6.30;4.95;;;25.60;51.30;;;;;;5078851;28;20086;-74
2023/06/14 10:39:47;;;;;;;9.32;5.35;;;25.70;52.10;;;;;;5061025;28;20024;-73
2023/06/14 10:42:14;;;;;;;7.45;5.03;;;25.70;51.60;;;;;;5078117;28;20119;-74
2023/06/14 10:44:42;;;;;;;6.13;4.55;;;25.80;51.40;;;;;;5077902;28;20021;-74
2023/06/14 10:47:21;;;;;;;6.65;4.60;;;25.90;51.10;;;;;;5078340;28;20025;-74
2023/06/14 10:50:11;;;;;;;8.55;4.97;;;26.10;51.10;;;;;;5078394;28;20051;-74
2023/06/14 10:52:43;;;;;;;8.35;5.30;;;26.40;50.50;;;;;;5077970;28;20028;-74
2023/06/14 10:55:17;;;;;;;6.82;4.97;;;26.50;50.60;;;;;;5078153;28;20107;-74
2023/06/14 10:57:51;;;;;;;8.30;4.40;;;26.60;50.60;;;;;;5077877;28;20047;-74
2023/06/14 11:00:22;;;;;;;9.02;4.95;;;26.90;50.10;;;;;;5078177;28;20024;-74
2023/06/14 11:03:24;;;;;;;8.48;4.97;;;27.00;49.80;;;;;;5078095;28;20051;-74
2023/06/14 11:05:53;;;;;;;8.73;5.13;;;27.20;49.10;;;;;;5083891;28;20051;-73
2023/06/14 11:08:37;;;;;;;7.57;5.20;;;27.10;48.70;;;;;;5089012;28;20021;-74
2023/06/14 11:11:07;;;;;;;7.13;4.75;;;26.90;49.70;;;;;;5088172;28;20020;-73
2023/06/14 11:13:34;;;;;;;5.45;4.28;;;26.90;48.80;;;;;;5078269;28;20334;-74
2023/06/14 11:16:00;;;;;;;7.07;4.85;;;26.90;48.40;;;;;;5077414;28;20025;-74
2023/06/14 11:18:28;;;;;;;7.55;4.70;;;26.90;48.00;;;;;;5077502;28;20036;-74
2023/06/14 11:20:54;;;;;;;7.60;4.35;;;26.80;47.40;;;;;;5077483;28;20025;-74
2023/06/14 11:23:22;;;;;;;5.72;4.40;;;26.80;47.90;;;;;;5077065;28;20086;-74
2023/06/14 11:25:52;;;;;;;6.97;4.40;;;26.80;47.00;;;;;;5060212;28;20056;-75
2023/06/14 11:28:19;;;;;;;5.65;4.10;;;26.70;47.00;;;;;;5077609;28;20024;-74
2023/06/14 11:30:46;;;;;;;6.80;4.57;;;26.70;47.30;;;;;;5077268;28;20025;-74
2023/06/14 11:33:18;;;;;;;9.77;4.72;;;26.70;46.80;;;;;;5077193;28;20346;-74
2023/06/14 11:35:45;;;;;;;6.57;4.47;;;26.60;47.60;;;;;;5095657;28;20058;-74
2023/06/14 11:38:11;;;;;;;7.30;4.70;;;26.60;47.20;;;;;;5097449;28;20107;-74
2023/06/14 11:40:39;;;;;;;8.30;4.80;;;26.70;47.30;;;;;;5097653;28;20031;-74
2023/06/14 11:43:05;;;;;;;10.40;4.85;;;26.80;47.60;;;;;;5097378;28;20024;-74
2023/06/14 11:45:31;;;;;;;6.68;4.70;;;26.80;46.90;;;;;;5097125;28;20013;-74
2023/06/14 11:47:58;;;;;;;10.02;5.22;;;26.70;46.30;;;;;;5097199;28;20024;-74
2023/06/14 11:50:25;;;;;;;7.03;4.75;;;26.80;46.70;;;;;;5097215;28;20062;-74
2023/06/14 11:52:55;;;;;;;9.27;4.90;;;26.80;45.60;;;;;;5097647;28;20390;-74
2023/06/14 11:55:21;;;;;;;9.00;4.95;;;26.80;46.50;;;;;;5097421;28;20024;-74
2023/06/14 11:57:48;;;;;;;8.35;4.30;;;26.80;46.60;;;;;;5097532;28;20088;-74
2023/06/14 12:00:15;;;;;;;6.70;4.40;;;26.90;46.90;;;;;;5097255;28;20023;-74
2023/06/14 12:02:42;;;;;;;6.38;4.20;;;26.90;47.10;;;;;;5097188;28;20032;-74
2023/06/14 12:05:11;;;;;;;7.05;5.03;;;27.00;47.20;;;;;;5096759;28;20027;-74
2023/06/14 12:07:39;;;;;;;5.05;3.92;;;27.20;47.00;;;;;;5096804;28;20035;-74
2023/06/14 12:10:10;;;;;;;7.45;4.45;;;27.30;46.60;;;;;;5096709;28;20077;-74
2023/06/14 12:12:38;;;;;;;8.95;4.32;;;27.30;46.70;;;;;;5096782;28;20350;-74
2023/06/14 12:15:09;;;;;;;6.07;4.35;;;27.40;46.80;;;;;;5096945;28;20103;-74
2023/06/14 12:17:38;;;;;;;7.13;4.70;;;27.40;46.40;;;;;;5097204;28;20052;-74
2023/06/14 12:20:15;;;;;;;8.60;5.30;;;27.40;46.00;;;;;;5096572;28;20035;-74
2023/06/14 12:22:58;;;;;;;6.85;4.90;;;27.20;44.30;;;;;;5097147;28;20349;-74
2023/06/14 12:25:31;;;;;;;7.30;4.88;;;27.00;45.20;;;;;;5095448;28;20108;-74
2023/06/14 12:27:58;;;;;;;8.55;4.85;;;27.00;48.50;;;;;;5096759;28;20039;-74
2023/06/14 12:30:24;;;;;;;9.20;4.88;;;27.00;46.90;;;;;;5096660;28;20102;-74
2023/06/14 12:32:51;;;;;;;7.47;4.97;;;27.00;46.10;;;;;;5096414;28;20119;-74
2023/06/14 12:35:18;;;;;;;9.27;4.68;;;26.80;44.90;;;;;;5079110;28;20053;-74
2023/06/14 12:37:46;;;;;;;7.00;4.38;;;26.80;46.00;;;;;;5076212;28;20040;-74
2023/06/14 12:40:12;;;;;;;6.03;4.70;;;26.80;47.10;;;;;;5076192;28;20096;-74
2023/06/14 12:42:38;;;;;;;7.03;4.30;;;26.80;46.00;;;;;;5058438;28;20059;-74
2023/06/14 12:45:05;;;;;;;6.65;4.70;;;26.80;45.40;;;;;;5058057;28;20028;-74
2023/06/14 12:47:31;;;;;;;6.10;4.00;;;26.90;45.80;;;;;;5075686;28;20032;-74